createdAt,value
2019-02-28T00:00:54.987Z,0
2019-02-28T00:01:54.935Z,0
2019-02-28T00:02:56.343Z,0
2019-02-28T00:03:57.913Z,0
2019-02-28T00:04:54.858Z,0
2019-02-28T00:05:54.843Z,0
2019-02-28T00:06:54.832Z,0
2019-02-28T00:07:56.826Z,0
2019-02-28T00:08:58.070Z,0
2019-02-28T00:09:57.323Z,0
2019-02-28T00:10:54.749Z,0
2019-02-28T00:11:54.725Z,0
2019-02-28T00:12:55.749Z,0
2019-02-28T00:14:00.222Z,0
2019-02-28T00:14:54.661Z,0
2019-02-28T00:15:54.642Z,0
2019-02-28T00:16:54.630Z,0
2019-02-28T00:17:54.603Z,0
2019-02-28T00:18:57.576Z,0
2019-02-28T00:19:55.268Z,0
2019-02-28T00:20:54.805Z,0
2019-02-28T00:21:54.564Z,0
2019-02-28T00:22:56.380Z,0
2019-02-28T00:23:58.975Z,0
2019-02-28T00:24:54.217Z,0
2019-02-28T00:25:54.440Z,0
2019-02-28T00:26:55.032Z,0
2019-02-28T00:27:57.462Z,0
2019-02-28T00:28:56.950Z,0
2019-02-28T00:29:54.362Z,0
2019-02-28T00:30:54.344Z,0
2019-02-28T00:31:57.704Z,0
2019-02-28T00:32:56.297Z,0
2019-02-28T00:33:54.309Z,0
2019-02-28T00:34:54.264Z,0
2019-02-28T00:35:54.266Z,0
2019-02-28T00:36:57.680Z,0
2019-02-28T00:37:56.599Z,0
2019-02-28T00:38:54.170Z,0
2019-02-28T00:39:54.148Z,0
2019-02-28T00:40:54.117Z,0
2019-02-28T00:41:54.090Z,0
2019-02-28T00:42:57.570Z,0
2019-02-28T00:43:56.832Z,0
2019-02-28T00:44:54.047Z,0
2019-02-28T00:45:53.766Z,0
2019-02-28T00:46:54.003Z,0
2019-02-28T00:47:55.369Z,0
2019-02-28T00:48:55.414Z,0
2019-02-28T00:49:55.560Z,0
2019-02-28T00:50:53.911Z,0
2019-02-28T00:51:53.893Z,0
2019-02-28T00:52:53.882Z,0
2019-02-28T00:53:53.852Z,0
2019-02-28T00:54:53.830Z,0
2019-02-28T00:55:54.109Z,0
2019-02-28T00:56:58.739Z,0
2019-02-28T00:57:55.361Z,0
2019-02-28T00:58:53.749Z,0
2019-02-28T00:59:53.722Z,0
2019-02-28T01:00:53.695Z,0
2019-02-28T01:01:54.096Z,0
2019-02-28T01:03:00.439Z,0
2019-02-28T01:03:53.649Z,0
2019-02-28T01:04:53.607Z,0
2019-02-28T01:05:53.368Z,0
2019-02-28T01:06:53.595Z,0
2019-02-28T01:07:55.387Z,0
2019-02-28T01:08:58.202Z,0
2019-02-28T01:09:53.519Z,0
2019-02-28T01:10:53.261Z,0
2019-02-28T01:11:53.480Z,0
2019-02-28T01:12:58.108Z,0
2019-02-28T01:13:53.429Z,0
2019-02-28T01:14:53.412Z,0
2019-02-28T01:15:53.404Z,0
2019-02-28T01:16:57.382Z,0
2019-02-28T01:17:53.337Z,0
2019-02-28T01:18:53.328Z,0
2019-02-28T01:19:53.301Z,0
2019-02-28T01:20:57.161Z,0
2019-02-28T01:21:55.358Z,0
2019-02-28T01:22:53.240Z,0
2019-02-28T01:23:53.216Z,0
2019-02-28T01:24:53.215Z,0
2019-02-28T01:25:53.226Z,0
2019-02-28T01:26:54.349Z,0
2019-02-28T01:27:55.354Z,0
2019-02-28T01:28:53.130Z,0
2019-02-28T01:29:53.108Z,0
2019-02-28T01:30:53.097Z,0
2019-02-28T01:31:53.054Z,0
2019-02-28T01:32:57.139Z,0
2019-02-28T01:33:53.023Z,0
2019-02-28T01:34:52.991Z,0
2019-02-28T01:35:52.988Z,0
2019-02-28T01:36:56.574Z,0
2019-02-28T01:37:55.316Z,0
2019-02-28T01:38:57.416Z,0
2019-02-28T01:39:52.894Z,0
2019-02-28T01:40:52.857Z,0
2019-02-28T01:41:52.987Z,0
2019-02-28T01:42:56.387Z,0
2019-02-28T01:43:52.809Z,0
2019-02-28T01:44:52.782Z,0
2019-02-28T01:45:52.756Z,0
2019-02-28T01:46:55.650Z,0
2019-02-28T01:47:54.166Z,0
2019-02-28T01:48:54.507Z,0
2019-02-28T01:49:52.669Z,0
2019-02-28T01:50:52.659Z,0
2019-02-28T01:51:52.649Z,0
2019-02-28T01:52:53.295Z,0
2019-02-28T01:53:58.206Z,0
2019-02-28T01:54:52.577Z,0
2019-02-28T01:55:52.548Z,0
2019-02-28T01:56:52.543Z,0
2019-02-28T01:57:52.523Z,0
2019-02-28T01:58:55.272Z,0
2019-02-28T01:59:55.429Z,0
2019-02-28T02:00:53.645Z,0
2019-02-28T02:01:52.437Z,0
2019-02-28T02:02:52.415Z,0
2019-02-28T02:03:52.384Z,0
2019-02-28T02:04:52.975Z,0
2019-02-28T02:05:56.092Z,0
2019-02-28T02:06:52.323Z,0
2019-02-28T02:07:52.309Z,0
2019-02-28T02:08:52.274Z,0
2019-02-28T02:09:53.906Z,0
2019-02-28T02:10:57.349Z,0
2019-02-28T02:11:52.232Z,0
2019-02-28T02:12:52.202Z,0
2019-02-28T02:13:52.192Z,0
2019-02-28T02:14:52.879Z,0
2019-02-28T02:15:55.788Z,0
2019-02-28T02:16:52.112Z,0
2019-02-28T02:17:52.087Z,0
2019-02-28T02:18:52.072Z,0
2019-02-28T02:19:54.661Z,0
2019-02-28T02:20:52.044Z,0
2019-02-28T02:21:52.002Z,0
2019-02-28T02:22:52.662Z,0
2019-02-28T02:23:57.412Z,0
2019-02-28T02:24:51.960Z,0
2019-02-28T02:25:51.925Z,0
2019-02-28T02:26:52.348Z,0
2019-02-28T02:27:55.515Z,0
2019-02-28T02:28:51.873Z,0
2019-02-28T02:29:51.843Z,0
2019-02-28T02:30:57.824Z,0
2019-02-28T02:31:51.816Z,0
2019-02-28T02:32:51.808Z,0
2019-02-28T02:33:58.380Z,0
2019-02-28T02:34:51.750Z,0
2019-02-28T02:35:51.502Z,0
2019-02-28T02:36:58.013Z,0
2019-02-28T02:37:51.716Z,0
2019-02-28T02:38:51.654Z,0
2019-02-28T02:39:55.103Z,0
2019-02-28T02:40:58.893Z,0
2019-02-28T02:41:51.608Z,0
2019-02-28T02:42:56.773Z,0
2019-02-28T02:43:54.835Z,0
2019-02-28T02:44:51.541Z,0
2019-02-28T02:45:51.520Z,0
2019-02-28T02:46:58.201Z,0
2019-02-28T02:47:51.480Z,0
2019-02-28T02:48:51.457Z,0
2019-02-28T02:49:58.631Z,0
2019-02-28T02:50:51.422Z,0
2019-02-28T02:51:56.248Z,0
2019-02-28T02:52:51.372Z,0
2019-02-28T02:53:51.356Z,0
2019-02-28T02:54:55.190Z,0
2019-02-28T02:55:51.302Z,0
2019-02-28T02:56:51.332Z,0
2019-02-28T02:57:57.986Z,0
2019-02-28T02:58:51.257Z,0
2019-02-28T02:59:51.234Z,0
2019-02-28T03:00:57.007Z,0
2019-02-28T03:01:51.177Z,0
2019-02-28T03:02:51.155Z,0
2019-02-28T03:03:51.423Z,0
2019-02-28T03:04:57.741Z,0
2019-02-28T03:05:51.096Z,0
2019-02-28T03:06:53.306Z,0
2019-02-28T03:07:51.083Z,0
2019-02-28T03:08:51.042Z,0
2019-02-28T03:09:51.912Z,0
2019-02-28T03:10:55.070Z,0
2019-02-28T03:11:50.961Z,0
2019-02-28T03:12:51.002Z,0
2019-02-28T03:13:51.384Z,0
2019-02-28T03:14:53.640Z,0
2019-02-28T03:15:50.875Z,0
2019-02-28T03:16:50.642Z,0
2019-02-28T03:17:55.411Z,0
2019-02-28T03:18:56.463Z,0
2019-02-28T03:19:50.787Z,0
2019-02-28T03:20:50.838Z,0
2019-02-28T03:21:58.785Z,0
2019-02-28T03:22:50.744Z,0
2019-02-28T03:23:50.748Z,0
2019-02-28T03:24:57.978Z,0
2019-02-28T03:25:50.691Z,0
2019-02-28T03:26:50.660Z,0
2019-02-28T03:27:57.548Z,0
2019-02-28T03:28:50.594Z,0
2019-02-28T03:29:51.826Z,0
2019-02-28T03:30:50.591Z,0
2019-02-28T03:32:04.248Z,0
2019-02-28T03:32:50.563Z,0
2019-02-28T03:33:50.585Z,0
2019-02-28T03:35:04.191Z,0
2019-02-28T03:35:51.488Z,0
2019-02-28T03:37:00.730Z,0
2019-02-28T03:37:50.424Z,0
2019-02-28T03:38:55.769Z,0
2019-02-28T03:39:50.396Z,0
2019-02-28T03:40:50.383Z,0
2019-02-28T03:41:55.449Z,0
2019-02-28T03:42:50.357Z,0
2019-02-28T03:43:51.331Z,0
2019-02-28T03:44:56.594Z,0
2019-02-28T03:45:50.261Z,0
2019-02-28T03:46:54.806Z,0
2019-02-28T03:47:50.239Z,0
2019-02-28T03:48:50.858Z,0
2019-02-28T03:49:55.863Z,0
2019-02-28T03:50:50.213Z,0
2019-02-28T03:51:50.128Z,0
2019-02-28T03:52:51.913Z,0
2019-02-28T03:53:55.522Z,0
2019-02-28T03:54:50.056Z,0
2019-02-28T03:55:50.044Z,0
2019-02-28T03:56:56.163Z,0
2019-02-28T03:57:50.014Z,0
2019-02-28T03:58:50.356Z,0
2019-02-28T03:59:57.905Z,0
2019-02-28T04:00:49.930Z,0
2019-02-28T04:01:53.470Z,0
2019-02-28T04:02:56.577Z,0
2019-02-28T04:03:49.887Z,0
2019-02-28T04:04:55.934Z,0
2019-02-28T04:05:49.856Z,0
2019-02-28T04:06:49.809Z,0
2019-02-28T04:07:57.966Z,0
2019-02-28T04:08:49.801Z,0
2019-02-28T04:09:52.184Z,0
2019-02-28T04:10:49.505Z,0
2019-02-28T04:11:49.727Z,0
2019-02-28T04:12:53.934Z,0
2019-02-28T04:13:52.385Z,0
2019-02-28T04:14:49.634Z,0
2019-02-28T04:16:13.855Z,0
2019-02-28T04:16:55.189Z,0
2019-02-28T04:17:49.612Z,0
2019-02-28T04:18:53.428Z,0
2019-02-28T04:19:49.541Z,0
2019-02-28T04:20:49.540Z,0
2019-02-28T04:21:53.582Z,0
2019-02-28T04:22:49.505Z,0
2019-02-28T04:23:49.452Z,0
2019-02-28T04:24:53.564Z,0
2019-02-28T04:25:49.406Z,0
2019-02-28T04:26:49.402Z,0
2019-02-28T04:27:49.411Z,0
2019-02-28T04:28:55.894Z,0
2019-02-28T04:29:49.325Z,0
2019-02-28T04:30:51.001Z,0
2019-02-28T04:31:51.276Z,0
2019-02-28T04:32:49.242Z,0
2019-02-28T04:33:49.244Z,0
2019-02-28T04:34:53.613Z,0
2019-02-28T04:35:49.198Z,0
2019-02-28T04:36:49.151Z,0
2019-02-28T04:37:54.083Z,0
2019-02-28T04:38:51.660Z,0
2019-02-28T04:39:49.104Z,0
2019-02-28T04:40:49.094Z,0
2019-02-28T04:41:49.062Z,0
2019-02-28T04:42:49.036Z,0
2019-02-28T04:43:52.040Z,0
2019-02-28T04:44:54.095Z,0
2019-02-28T04:45:48.972Z,0
2019-02-28T04:46:48.955Z,0
2019-02-28T04:47:48.997Z,0
2019-02-28T04:48:52.900Z,0
2019-02-28T04:49:48.878Z,0
2019-02-28T04:50:48.864Z,0
2019-02-28T04:51:48.836Z,0
2019-02-28T04:52:53.948Z,0
2019-02-28T04:53:52.469Z,0
2019-02-28T04:54:48.778Z,0
2019-02-28T04:55:48.796Z,0
2019-02-28T04:56:52.246Z,0
2019-02-28T04:57:51.566Z,0
2019-02-28T04:58:48.742Z,0
2019-02-28T04:59:48.749Z,0
2019-02-28T05:00:48.642Z,0
2019-02-28T05:01:52.514Z,0
2019-02-28T05:02:53.689Z,0
2019-02-28T05:03:48.595Z,0
2019-02-28T05:04:49.833Z,0
2019-02-28T05:05:54.820Z,0
2019-02-28T05:06:52.116Z,0
2019-02-28T05:07:49.665Z,0
2019-02-28T05:08:48.518Z,0
2019-02-28T05:09:52.381Z,0
2019-02-28T05:10:48.451Z,0
2019-02-28T05:11:48.426Z,0
2019-02-28T05:12:48.394Z,0
2019-02-28T05:13:53.229Z,0
2019-02-28T05:14:48.369Z,0
2019-02-28T05:15:48.348Z,0
2019-02-28T05:16:54.319Z,0
2019-02-28T05:17:48.300Z,0
2019-02-28T05:18:48.272Z,0
2019-02-28T05:19:48.313Z,0
2019-02-28T05:20:52.307Z,0
2019-02-28T05:21:50.571Z,0
2019-02-28T05:22:47.999Z,0
2019-02-28T05:23:48.160Z,0
2019-02-28T05:24:49.760Z,0
2019-02-28T05:25:49.048Z,0
2019-02-28T05:26:48.149Z,0
2019-02-28T05:27:48.106Z,0
2019-02-28T05:28:48.507Z,0
2019-02-28T05:29:51.625Z,0
2019-02-28T05:30:50.136Z,0
2019-02-28T05:31:47.991Z,0
2019-02-28T05:32:47.968Z,0
2019-02-28T05:33:49.789Z,0
2019-02-28T05:34:53.055Z,0
2019-02-28T05:35:47.923Z,0
2019-02-28T05:36:47.898Z,0
2019-02-28T05:37:54.048Z,0
2019-02-28T05:38:47.841Z,0
2019-02-28T05:39:48.499Z,0
2019-02-28T05:40:48.612Z,0
2019-02-28T05:41:51.542Z,0
2019-02-28T05:42:47.757Z,0
2019-02-28T05:43:47.873Z,0
2019-02-28T05:44:48.050Z,0
2019-02-28T05:45:51.220Z,0
2019-02-28T05:46:47.675Z,0
2019-02-28T05:47:54.003Z,0
2019-02-28T05:48:47.655Z,0
2019-02-28T05:49:48.936Z,0
2019-02-28T05:50:52.684Z,0
2019-02-28T05:51:47.570Z,0
2019-02-28T05:52:47.575Z,0
2019-02-28T05:53:49.474Z,0
2019-02-28T05:54:52.351Z,0
2019-02-28T05:55:47.489Z,0
2019-02-28T05:56:47.520Z,0
2019-02-28T05:57:50.793Z,0
2019-02-28T05:58:49.286Z,0
2019-02-28T05:59:47.443Z,0
2019-02-28T06:00:47.466Z,0
2019-02-28T06:01:51.504Z,0
2019-02-28T06:02:47.404Z,0
2019-02-28T06:03:47.320Z,0
2019-02-28T06:04:47.300Z,4
2019-02-28T06:05:50.779Z,4
2019-02-28T06:06:47.249Z,0
2019-02-28T06:07:47.222Z,0
2019-02-28T06:08:47.244Z,4
2019-02-28T06:09:51.689Z,4
2019-02-28T06:10:46.928Z,4
2019-02-28T06:11:47.139Z,4
2019-02-28T06:12:50.254Z,4
2019-02-28T06:13:49.573Z,4
2019-02-28T06:14:47.157Z,8
2019-02-28T06:15:47.051Z,4
2019-02-28T06:16:51.261Z,8
2019-02-28T06:17:47.032Z,8
2019-02-28T06:18:47.182Z,8
2019-02-28T06:19:48.868Z,8
2019-02-28T06:20:50.912Z,12
2019-02-28T06:21:46.973Z,8
2019-02-28T06:22:46.914Z,12
2019-02-28T06:23:48.043Z,12
2019-02-28T06:24:49.634Z,16
2019-02-28T06:25:46.873Z,16
2019-02-28T06:26:46.821Z,20
2019-02-28T06:27:53.927Z,16
2019-02-28T06:28:46.771Z,20
2019-02-28T06:29:46.763Z,20
2019-02-28T06:30:48.766Z,20
2019-02-28T06:31:50.570Z,24
2019-02-28T06:32:46.759Z,24
2019-02-28T06:33:47.069Z,28
2019-02-28T06:34:49.532Z,28
2019-02-28T06:35:49.473Z,32
2019-02-28T06:36:46.630Z,32
2019-02-28T06:37:46.354Z,32
2019-02-28T06:38:46.581Z,36
2019-02-28T06:39:46.543Z,40
2019-02-28T06:40:46.546Z,40
2019-02-28T06:41:48.129Z,40
2019-02-28T06:42:49.861Z,44
2019-02-28T06:43:46.719Z,44
2019-02-28T06:44:46.450Z,48
2019-02-28T06:45:46.434Z,52
2019-02-28T06:46:47.781Z,52
2019-02-28T06:47:50.644Z,52
2019-02-28T06:48:46.369Z,60
2019-02-28T06:49:49.185Z,60
2019-02-28T06:50:50.215Z,60
2019-02-28T06:51:48.316Z,64
2019-02-28T06:52:46.255Z,68
2019-02-28T06:53:46.287Z,72
2019-02-28T06:54:48.125Z,72
2019-02-28T06:55:51.017Z,76
2019-02-28T06:56:46.173Z,80
2019-02-28T06:57:46.178Z,84
2019-02-28T06:58:46.210Z,84
2019-02-28T06:59:46.845Z,88
2019-02-28T07:00:53.264Z,88
2019-02-28T07:01:46.473Z,92
2019-02-28T07:02:46.195Z,96
2019-02-28T07:03:55.789Z,100
2019-02-28T07:04:51.558Z,104
2019-02-28T07:05:46.000Z,108
2019-02-28T07:06:45.989Z,108
2019-02-28T07:07:50.615Z,112
2019-02-28T07:08:45.954Z,116
2019-02-28T07:09:45.905Z,116
2019-02-28T07:10:50.152Z,120
2019-02-28T07:11:45.864Z,124
2019-02-28T07:12:45.855Z,124
2019-02-28T07:13:47.195Z,128
2019-02-28T07:14:50.771Z,132
2019-02-28T07:15:45.788Z,136
2019-02-28T07:16:45.826Z,140
2019-02-28T07:17:49.792Z,144
2019-02-28T07:18:45.707Z,148
2019-02-28T07:19:45.696Z,152
2019-02-28T07:20:47.179Z,156
2019-02-28T07:21:50.123Z,156
2019-02-28T07:22:47.217Z,160
2019-02-28T07:23:45.612Z,160
2019-02-28T07:24:45.602Z,164
2019-02-28T07:25:49.446Z,168
2019-02-28T07:26:45.556Z,176
2019-02-28T07:27:45.934Z,176
2019-02-28T07:28:45.611Z,180
2019-02-28T07:29:47.607Z,180
2019-02-28T07:30:45.466Z,184
2019-02-28T07:31:45.481Z,188
2019-02-28T07:32:45.411Z,192
2019-02-28T07:33:51.334Z,196
2019-02-28T07:34:45.220Z,204
2019-02-28T07:35:45.357Z,204
2019-02-28T07:36:49.180Z,212
2019-02-28T07:37:45.096Z,212
2019-02-28T07:38:45.333Z,216
2019-02-28T07:39:48.142Z,216
2019-02-28T07:40:45.725Z,220
2019-02-28T07:41:46.209Z,224
2019-02-28T07:42:45.788Z,228
2019-02-28T07:43:50.740Z,232
2019-02-28T07:44:45.177Z,232
2019-02-28T07:45:45.156Z,236
2019-02-28T07:46:49.004Z,240
2019-02-28T07:47:45.128Z,244
2019-02-28T07:48:45.063Z,248
2019-02-28T07:49:45.146Z,256
2019-02-28T07:50:51.042Z,252
2019-02-28T07:51:45.019Z,256
2019-02-28T07:52:45.010Z,260
2019-02-28T07:53:48.316Z,264
2019-02-28T07:54:47.379Z,268
2019-02-28T07:55:44.738Z,276
2019-02-28T07:56:49.945Z,284
2019-02-28T07:57:45.137Z,296
2019-02-28T07:58:45.059Z,308
2019-02-28T07:59:49.562Z,320
2019-02-28T08:00:44.833Z,320
2019-02-28T08:01:44.840Z,328
2019-02-28T08:02:46.952Z,332
2019-02-28T08:03:48.246Z,332
2019-02-28T08:04:46.114Z,336
2019-02-28T08:05:45.047Z,340
2019-02-28T08:06:47.204Z,340
2019-02-28T08:07:50.161Z,344
2019-02-28T08:08:44.964Z,344
2019-02-28T08:09:47.962Z,340
2019-02-28T08:10:47.907Z,332
2019-02-28T08:11:44.587Z,332
2019-02-28T08:12:44.569Z,332
2019-02-28T08:13:45.446Z,320
2019-02-28T08:14:49.078Z,328
2019-02-28T08:15:44.304Z,332
2019-02-28T08:16:44.567Z,296
2019-02-28T08:17:50.606Z,240
2019-02-28T08:18:44.431Z,288
2019-02-28T08:19:44.427Z,244
2019-02-28T08:20:44.502Z,232
2019-02-28T08:21:53.631Z,268
2019-02-28T08:22:44.347Z,296
2019-02-28T08:23:44.917Z,292
2019-02-28T08:24:44.367Z,292
2019-02-28T08:25:47.576Z,304
2019-02-28T08:26:46.123Z,296
2019-02-28T08:27:44.420Z,276
2019-02-28T08:28:44.239Z,308
2019-02-28T08:29:49.579Z,300
2019-02-28T08:30:44.244Z,320
2019-02-28T08:31:44.209Z,352
2019-02-28T08:32:51.879Z,376
2019-02-28T08:33:44.307Z,408
2019-02-28T08:34:46.574Z,412
2019-02-28T08:35:44.737Z,424
2019-02-28T08:36:46.875Z,432
2019-02-28T08:37:44.065Z,452
2019-02-28T08:38:46.137Z,464
2019-02-28T08:39:46.113Z,476
2019-02-28T08:40:44.027Z,456
2019-02-28T08:41:43.959Z,448
2019-02-28T08:42:46.849Z,464
2019-02-28T08:43:47.743Z,480
2019-02-28T08:44:43.993Z,472
2019-02-28T08:45:43.931Z,448
2019-02-28T08:46:48.499Z,392
2019-02-28T08:47:44.004Z,280
2019-02-28T08:48:43.590Z,260
2019-02-28T08:49:50.318Z,356
2019-02-28T08:50:43.875Z,436
2019-02-28T08:51:45.642Z,308
2019-02-28T08:52:48.492Z,360
2019-02-28T08:53:43.771Z,360
2019-02-28T08:54:43.671Z,456
2019-02-28T08:55:49.379Z,288
2019-02-28T08:56:46.108Z,276
2019-02-28T08:57:43.591Z,300
2019-02-28T08:58:47.343Z,300
2019-02-28T08:59:43.568Z,308
2019-02-28T09:00:44.849Z,388
2019-02-28T09:01:49.080Z,444
2019-02-28T09:02:43.350Z,364
2019-02-28T09:03:45.432Z,448
2019-02-28T09:04:53.443Z,640
2019-02-28T09:05:43.602Z,536
2019-02-28T09:06:47.716Z,532
2019-02-28T09:07:43.424Z,500
2019-02-28T09:08:43.416Z,444
2019-02-28T09:09:43.518Z,484
2019-02-28T09:10:49.066Z,412
2019-02-28T09:11:43.314Z,400
2019-02-28T09:12:43.399Z,400
2019-02-28T09:13:47.439Z,424
2019-02-28T09:14:43.236Z,516
2019-02-28T09:15:43.002Z,528
2019-02-28T09:16:46.539Z,648
2019-02-28T09:17:45.058Z,644
2019-02-28T09:18:44.769Z,688
2019-02-28T09:19:44.093Z,628
2019-02-28T09:20:49.137Z,544
2019-02-28T09:21:43.698Z,500
2019-02-28T09:22:43.110Z,496
2019-02-28T09:23:45.434Z,672
2019-02-28T09:24:46.650Z,544
2019-02-28T09:25:43.138Z,520
2019-02-28T09:26:42.997Z,484
2019-02-28T09:27:46.703Z,468
2019-02-28T09:28:44.347Z,536
2019-02-28T09:29:42.938Z,468
2019-02-28T09:30:42.932Z,452
2019-02-28T09:31:45.915Z,484
2019-02-28T09:32:45.184Z,560
2019-02-28T09:33:42.941Z,544
2019-02-28T09:34:43.720Z,516
2019-02-28T09:35:47.634Z,468
2019-02-28T09:36:42.752Z,424
2019-02-28T09:37:43.853Z,408
2019-02-28T09:38:47.328Z,412
2019-02-28T09:39:42.823Z,384
2019-02-28T09:40:43.750Z,384
2019-02-28T09:41:46.998Z,400
2019-02-28T09:42:44.493Z,428
2019-02-28T09:43:42.772Z,460
2019-02-28T09:44:42.665Z,476
2019-02-28T09:45:45.217Z,488
2019-02-28T09:46:42.630Z,504
2019-02-28T09:47:42.707Z,520
2019-02-28T09:48:44.972Z,532
2019-02-28T09:49:44.199Z,516
2019-02-28T09:50:42.478Z,492
2019-02-28T09:51:42.860Z,468
2019-02-28T09:52:48.438Z,432
2019-02-28T09:53:42.648Z,448
2019-02-28T09:54:42.350Z,432
2019-02-28T09:55:44.604Z,452
2019-02-28T09:56:46.714Z,408
2019-02-28T09:57:42.350Z,388
2019-02-28T09:58:42.584Z,380
2019-02-28T09:59:45.568Z,476
2019-02-28T10:00:43.205Z,516
2019-02-28T10:01:42.557Z,540
2019-02-28T10:02:48.179Z,580
2019-02-28T10:03:42.515Z,580
2019-02-28T10:04:42.179Z,484
2019-02-28T10:05:45.537Z,472
2019-02-28T10:06:42.285Z,548
2019-02-28T10:07:42.170Z,604
2019-02-28T10:08:44.881Z,644
2019-02-28T10:09:51.035Z,688
2019-02-28T10:10:42.144Z,736
2019-02-28T10:11:42.985Z,728
2019-02-28T10:12:47.165Z,684
2019-02-28T10:13:42.146Z,568
2019-02-28T10:14:41.986Z,660
2019-02-28T10:15:46.228Z,588
2019-02-28T10:16:41.959Z,608
2019-02-28T10:17:42.303Z,580
2019-02-28T10:18:44.338Z,540
2019-02-28T10:19:56.798Z,528
2019-02-28T10:20:41.859Z,504
2019-02-28T10:21:44.426Z,472
2019-02-28T10:22:44.255Z,492
2019-02-28T10:23:42.852Z,564
2019-02-28T10:24:41.779Z,620
2019-02-28T10:25:48.246Z,628
2019-02-28T10:26:41.914Z,624
2019-02-28T10:27:41.763Z,616
2019-02-28T10:28:41.687Z,656
2019-02-28T10:29:46.491Z,612
2019-02-28T10:30:41.634Z,652
2019-02-28T10:31:45.661Z,620
2019-02-28T10:32:45.276Z,580
2019-02-28T10:33:41.698Z,544
2019-02-28T10:34:42.702Z,504
2019-02-28T10:35:44.110Z,484
2019-02-28T10:36:44.359Z,484
2019-02-28T10:37:42.994Z,504
2019-02-28T10:38:42.124Z,508
2019-02-28T10:39:45.365Z,504
2019-02-28T10:40:41.409Z,512
2019-02-28T10:41:41.409Z,552
2019-02-28T10:42:46.996Z,572
2019-02-28T10:43:41.383Z,576
2019-02-28T10:44:41.342Z,584
2019-02-28T10:45:46.214Z,568
2019-02-28T10:46:43.207Z,548
2019-02-28T10:47:41.276Z,544
2019-02-28T10:48:55.965Z,540
2019-02-28T10:49:41.245Z,532
2019-02-28T10:50:41.213Z,532
2019-02-28T10:51:41.423Z,520
2019-02-28T10:52:41.235Z,520
2019-02-28T10:53:44.163Z,528
2019-02-28T10:54:41.349Z,528
2019-02-28T10:55:41.096Z,540
2019-02-28T10:56:41.523Z,596
2019-02-28T10:57:45.074Z,632
2019-02-28T10:58:41.118Z,624
2019-02-28T10:59:41.010Z,600
2019-02-28T11:00:41.009Z,552
2019-02-28T11:01:46.531Z,492
2019-02-28T11:02:40.987Z,472
2019-02-28T11:03:40.967Z,460
2019-02-28T11:04:45.396Z,452
2019-02-28T11:05:40.961Z,444
2019-02-28T11:06:40.877Z,436
2019-02-28T11:07:46.145Z,444
2019-02-28T11:08:40.854Z,456
2019-02-28T11:09:40.665Z,484
2019-02-28T11:10:43.378Z,520
2019-02-28T11:11:42.477Z,584
2019-02-28T11:12:41.027Z,660
2019-02-28T11:13:41.003Z,752
2019-02-28T11:14:45.565Z,768
2019-02-28T11:15:40.947Z,804
2019-02-28T11:16:40.912Z,800
2019-02-28T11:17:41.468Z,820
2019-02-28T11:18:44.397Z,840
2019-02-28T11:19:41.211Z,848
2019-02-28T11:20:41.893Z,804
2019-02-28T11:21:41.773Z,764
2019-02-28T11:22:45.684Z,752
2019-02-28T11:23:40.716Z,768
2019-02-28T11:24:40.558Z,764
2019-02-28T11:25:42.802Z,720
2019-02-28T11:26:41.274Z,700
2019-02-28T11:27:40.678Z,672
2019-02-28T11:28:40.462Z,640
2019-02-28T11:29:42.273Z,624
2019-02-28T11:30:46.889Z,664
2019-02-28T11:31:40.634Z,600
2019-02-28T11:32:40.367Z,616
2019-02-28T11:33:44.014Z,572
2019-02-28T11:34:40.277Z,572
2019-02-28T11:35:40.303Z,544
2019-02-28T11:36:41.853Z,520
2019-02-28T11:37:42.299Z,508
2019-02-28T11:38:40.621Z,496
2019-02-28T11:39:40.984Z,492
2019-02-28T11:40:43.642Z,544
2019-02-28T11:41:40.474Z,524
2019-02-28T11:42:40.458Z,504
2019-02-28T11:43:44.716Z,488
2019-02-28T11:44:40.116Z,468
2019-02-28T11:45:40.053Z,480
2019-02-28T11:46:42.924Z,464
2019-02-28T11:47:42.618Z,452
2019-02-28T11:48:40.032Z,420
2019-02-28T11:49:39.738Z,428
2019-02-28T11:50:44.898Z,384
2019-02-28T11:51:39.963Z,372
2019-02-28T11:52:39.925Z,396
2019-02-28T11:53:44.105Z,428
2019-02-28T11:54:39.847Z,440
2019-02-28T11:55:39.848Z,504
2019-02-28T11:56:39.813Z,524
2019-02-28T11:57:45.616Z,536
2019-02-28T11:58:39.760Z,544
2019-02-28T11:59:39.741Z,548
2019-02-28T12:00:43.719Z,544
2019-02-28T12:01:42.396Z,532
2019-02-28T12:02:39.729Z,512
2019-02-28T12:03:42.704Z,508
2019-02-28T12:04:44.986Z,496
2019-02-28T12:05:40.243Z,488
2019-02-28T12:06:39.634Z,488
2019-02-28T12:07:42.662Z,476
2019-02-28T12:08:41.454Z,476
2019-02-28T12:09:39.524Z,472
2019-02-28T12:10:39.650Z,476
2019-02-28T12:11:43.192Z,480
2019-02-28T12:12:41.517Z,480
2019-02-28T12:13:39.762Z,476
2019-02-28T12:14:39.752Z,480
2019-02-28T12:15:43.727Z,488
2019-02-28T12:16:40.060Z,484
2019-02-28T12:17:39.504Z,488
2019-02-28T12:18:44.605Z,488
2019-02-28T12:19:39.310Z,492
2019-02-28T12:20:39.266Z,484
2019-02-28T12:21:42.734Z,460
2019-02-28T12:22:39.532Z,476
2019-02-28T12:23:39.229Z,472
2019-02-28T12:24:40.274Z,468
2019-02-28T12:25:42.715Z,468
2019-02-28T12:26:39.152Z,472
2019-02-28T12:27:39.137Z,476
2019-02-28T12:28:41.231Z,488
2019-02-28T12:29:38.853Z,488
2019-02-28T12:30:40.261Z,488
2019-02-28T12:31:42.687Z,480
2019-02-28T12:32:40.209Z,496
2019-02-28T12:33:39.184Z,480
2019-02-28T12:34:38.969Z,484
2019-02-28T12:35:45.702Z,488
2019-02-28T12:36:38.981Z,492
2019-02-28T12:37:39.195Z,472
2019-02-28T12:38:38.904Z,484
2019-02-28T12:39:41.678Z,484
2019-02-28T12:40:38.925Z,484
2019-02-28T12:41:40.101Z,476
2019-02-28T12:42:41.754Z,460
2019-02-28T12:43:40.501Z,480
2019-02-28T12:44:38.742Z,480
2019-02-28T12:45:38.733Z,476
2019-02-28T12:46:39.721Z,488
2019-02-28T12:47:41.498Z,488
2019-02-28T12:48:38.705Z,480
2019-02-28T12:49:38.656Z,488
2019-02-28T12:50:38.655Z,424
2019-02-28T12:51:42.519Z,388
2019-02-28T12:52:38.598Z,368
2019-02-28T12:53:39.768Z,352
2019-02-28T12:54:41.245Z,352
2019-02-28T12:55:42.306Z,444
2019-02-28T12:56:38.494Z,500
2019-02-28T12:57:38.627Z,424
2019-02-28T12:58:46.535Z,372
2019-02-28T12:59:41.763Z,404
2019-02-28T13:00:38.438Z,396
2019-02-28T13:01:40.375Z,376
2019-02-28T13:02:39.619Z,360
2019-02-28T13:03:38.446Z,336
2019-02-28T13:04:41.419Z,356
2019-02-28T13:05:38.370Z,404
2019-02-28T13:06:38.301Z,404
2019-02-28T13:07:41.674Z,412
2019-02-28T13:08:41.672Z,380
2019-02-28T13:09:38.238Z,496
2019-02-28T13:10:38.334Z,568
2019-02-28T13:11:41.070Z,496
2019-02-28T13:12:38.157Z,416
2019-02-28T13:13:38.180Z,420
2019-02-28T13:14:44.967Z,428
2019-02-28T13:15:38.576Z,376
2019-02-28T13:16:38.098Z,340
2019-02-28T13:17:39.321Z,324
2019-02-28T13:18:39.481Z,276
2019-02-28T13:19:38.003Z,244
2019-02-28T13:20:41.292Z,264
2019-02-28T13:21:38.452Z,344
2019-02-28T13:22:37.983Z,380
2019-02-28T13:23:40.122Z,400
2019-02-28T13:24:37.911Z,384
2019-02-28T13:25:37.882Z,332
2019-02-28T13:26:41.402Z,276
2019-02-28T13:27:41.401Z,288
2019-02-28T13:28:37.808Z,292
2019-02-28T13:29:39.750Z,272
2019-02-28T13:30:39.945Z,296
2019-02-28T13:31:40.198Z,324
2019-02-28T13:32:44.867Z,356
2019-02-28T13:33:37.749Z,388
2019-02-28T13:34:37.727Z,324
2019-02-28T13:35:37.660Z,328
2019-02-28T13:36:38.144Z,408
2019-02-28T13:37:44.745Z,420
2019-02-28T13:38:37.783Z,340
2019-02-28T13:39:39.058Z,276
2019-02-28T13:40:37.541Z,200
2019-02-28T13:41:37.533Z,232
2019-02-28T13:42:44.930Z,304
2019-02-28T13:43:39.222Z,312
2019-02-28T13:44:41.971Z,244
2019-02-28T13:45:37.437Z,228
2019-02-28T13:46:41.111Z,204
2019-02-28T13:47:37.393Z,200
2019-02-28T13:48:41.797Z,156
2019-02-28T13:49:38.667Z,172
2019-02-28T13:50:39.642Z,164
2019-02-28T13:51:44.591Z,128
2019-02-28T13:52:37.292Z,112
2019-02-28T13:53:38.662Z,100
2019-02-28T13:54:41.930Z,84
2019-02-28T13:55:37.231Z,76
2019-02-28T13:56:41.185Z,72
2019-02-28T13:57:37.212Z,100
2019-02-28T13:58:37.174Z,96
2019-02-28T13:59:39.099Z,92
2019-02-28T14:00:43.571Z,84
2019-02-28T14:01:37.146Z,92
2019-02-28T14:02:40.545Z,76
2019-02-28T14:03:37.032Z,68
2019-02-28T14:04:37.022Z,80
2019-02-28T14:05:44.170Z,80
2019-02-28T14:06:36.992Z,88
2019-02-28T14:07:38.630Z,84
2019-02-28T14:08:36.944Z,72
2019-02-28T14:09:37.201Z,68
2019-02-28T14:10:41.522Z,64
2019-02-28T14:11:37.187Z,60
2019-02-28T14:12:36.836Z,56
2019-02-28T14:13:41.766Z,68
2019-02-28T14:14:38.868Z,64